Time;durP1;ratioP1;P1;durP2;ratioP2;P2;SDS_P1;SDS_P2;PMS_P1;PMS_P2;Temp;Humidity;BMP_temperature;BMP_pressure;BME280_temperature;BME280_humidity;BME280_pressure;Samples;Min_cycle;Max_cycle;Signal;HPM_P1;HPM_P2
2022/03/07 00:01:04;;;;;;;16.80;10.07;;;1.00;73.70;;;;;;5062648;28;20377;-71
2022/03/07 00:03:29;;;;;;;15.48;9.70;;;1.00;73.60;;;;;;5073167;28;20060;-72
2022/03/07 00:05:55;;;;;;;16.40;10.02;;;0.90;74.50;;;;;;5073188;28;20059;-72
2022/03/07 00:08:21;;;;;;;16.40;10.00;;;0.90;75.00;;;;;;5072510;28;20458;-72
2022/03/07 00:10:47;;;;;;;14.55;8.82;;;0.90;75.20;;;;;;5065862;28;20044;-72
2022/03/07 00:13:12;;;;;;;12.82;9.27;;;0.90;75.10;;;;;;5051162;28;20100;-72
2022/03/07 00:15:38;;;;;;;17.00;8.90;;;0.90;75.40;;;;;;5052955;28;20029;-72
2022/03/07 00:18:04;;;;;;;13.02;8.95;;;1.00;75.90;;;;;;5085094;28;20067;-71
2022/03/07 00:20:30;;;;;;;15.60;9.77;;;1.00;76.50;;;;;;5054107;28;20474;-72
2022/03/07 00:22:56;;;;;;;13.88;8.88;;;1.00;76.80;;;;;;5073170;28;20036;-72
2022/03/07 00:25:22;;;;;;;14.27;9.57;;;1.00;76.50;;;;;;5072071;28;20029;-71
2022/03/07 00:27:47;;;;;;;14.23;8.63;;;0.90;77.50;;;;;;5071307;28;20070;-72
2022/03/07 00:30:15;;;;;;;14.45;8.73;;;0.90;78.10;;;;;;5071861;28;20427;-72
2022/03/07 00:32:42;;;;;;;10.95;8.57;;;0.90;78.50;;;;;;5034227;28;20371;-72
2022/03/07 00:35:08;;;;;;;12.07;8.35;;;0.90;78.50;;;;;;5051852;28;20501;-71
2022/03/07 00:37:34;;;;;;;12.63;8.77;;;0.80;79.30;;;;;;5053074;28;20024;-72
2022/03/07 00:40:00;;;;;;;12.45;8.55;;;0.80;80.30;;;;;;5032604;28;20109;-72
2022/03/07 00:42:25;;;;;;;12.77;8.85;;;0.80;80.50;;;;;;5067143;28;20195;-72
2022/03/07 00:44:51;;;;;;;14.25;8.23;;;0.80;80.80;;;;;;5058608;28;20040;-72
2022/03/07 00:47:17;;;;;;;12.43;8.68;;;0.80;81.40;;;;;;5051892;28;20035;-72
2022/03/07 00:49:43;;;;;;;16.27;7.85;;;0.70;82.10;;;;;;5052573;28;20100;-72
2022/03/07 00:52:08;;;;;;;10.57;7.82;;;0.70;82.40;;;;;;5051783;28;20109;-71
2022/03/07 00:54:34;;;;;;;16.17;8.43;;;0.70;83.20;;;;;;5052650;28;20036;-72
2022/03/07 00:57:00;;;;;;;12.10;7.82;;;0.70;82.80;;;;;;5052336;28;20098;-73
2022/03/07 00:59:26;;;;;;;12.52;7.57;;;0.60;83.60;;;;;;5064670;28;20068;-73
2022/03/07 01:01:51;;;;;;;13.65;7.88;;;0.60;83.90;;;;;;5060233;28;20055;-73
2022/03/07 01:04:17;;;;;;;12.82;8.00;;;0.60;83.90;;;;;;5051905;28;20048;-73
2022/03/07 01:06:43;;;;;;;13.73;8.48;;;0.60;84.20;;;;;;5052415;28;20033;-73
2022/03/07 01:09:08;;;;;;;12.02;7.43;;;0.60;83.60;;;;;;5051576;28;20083;-72
2022/03/07 01:11:35;;;;;;;12.90;7.65;;;0.60;84.50;;;;;;5058931;28;20039;-73
2022/03/07 01:14:01;;;;;;;14.25;8.88;;;0.50;84.50;;;;;;5072247;28;20195;-73
2022/03/07 01:16:27;;;;;;;13.38;7.55;;;0.50;83.60;;;;;;5071443;28;20086;-73
2022/03/07 01:18:52;;;;;;;10.88;7.35;;;0.50;85.00;;;;;;5066286;28;20052;-72
2022/03/07 01:21:18;;;;;;;10.73;7.45;;;0.40;84.60;;;;;;5066334;28;20486;-72
2022/03/07 01:23:44;;;;;;;14.20;7.93;;;0.30;86.70;;;;;;5055691;28;20032;-73
2022/03/07 01:26:09;;;;;;;13.52;8.23;;;0.30;86.70;;;;;;5063865;28;20029;-73
2022/03/07 01:28:35;;;;;;;11.52;7.07;;;0.30;86.90;;;;;;5072145;28;20024;-73
2022/03/07 01:31:01;;;;;;;11.75;7.55;;;0.20;86.10;;;;;;5072004;28;20454;-73
2022/03/07 01:33:26;;;;;;;11.32;7.68;;;0.20;86.30;;;;;;5051612;28;20035;-73
2022/03/07 01:35:52;;;;;;;11.15;7.28;;;0.20;85.20;;;;;;5051604;28;20378;-73
2022/03/07 01:38:17;;;;;;;11.40;7.15;;;0.10;85.30;;;;;;5050496;28;20473;-73
2022/03/07 01:40:44;;;;;;;10.68;7.45;;;0.00;85.60;;;;;;5050994;28;20107;-73
2022/03/07 01:43:10;;;;;;;12.48;7.45;;;0.00;86.10;;;;;;5066462;28;20055;-72
2022/03/07 01:45:39;;;;;;;12.82;7.68;;;0.00;86.50;;;;;;5051122;28;20029;-73
2022/03/07 01:48:04;;;;;;;11.73;7.57;;;-0.10;87.30;;;;;;5049767;28;20029;-73
2022/03/07 01:50:30;;;;;;;13.07;7.88;;;0.00;86.90;;;;;;5050256;28;20557;-74
2022/03/07 01:52:56;;;;;;;10.85;6.70;;;0.00;86.60;;;;;;5066049;28;20033;-73
2022/03/07 01:55:22;;;;;;;11.88;7.53;;;0.00;86.80;;;;;;5070276;28;20067;-73
2022/03/07 01:57:49;;;;;;;11.23;7.43;;;-0.10;86.40;;;;;;5070981;28;20060;-73
2022/03/07 02:00:18;;;;;;;13.98;7.53;;;-0.20;86.90;;;;;;5070315;28;20477;-73
2022/03/07 02:02:44;;;;;;;10.23;7.20;;;-0.30;87.40;;;;;;5058476;28;20036;-73
2022/03/07 02:05:10;;;;;;;10.77;7.57;;;-0.40;88.50;;;;;;5050690;28;20398;-73
2022/03/07 02:07:39;;;;;;;12.38;7.38;;;-0.50;89.10;;;;;;5050900;28;20100;-73
2022/03/07 02:10:08;;;;;;;9.95;7.40;;;-0.50;89.40;;;;;;5050737;28;20032;-73
2022/03/07 02:12:33;;;;;;;10.63;6.70;;;-0.60;90.20;;;;;;5051751;28;20045;-73
2022/03/07 02:14:59;;;;;;;10.63;7.43;;;-0.70;90.30;;;;;;5069673;28;20385;-73
2022/03/07 02:17:25;;;;;;;11.90;8.05;;;-0.80;90.70;;;;;;5069926;28;20025;-72
2022/03/07 02:19:50;;;;;;;12.05;7.95;;;-0.80;91.10;;;;;;5053770;28;20103;-73
2022/03/07 02:22:16;;;;;;;9.90;7.00;;;-0.80;90.60;;;;;;5049886;28;20111;-72
2022/03/07 02:24:43;;;;;;;11.90;8.38;;;-0.80;90.10;;;;;;5065663;28;20128;-72
2022/03/07 02:27:11;;;;;;;13.88;7.85;;;-0.90;90.20;;;;;;5070245;28;20508;-72
2022/03/07 02:29:37;;;;;;;13.10;7.82;;;-0.90;90.60;;;;;;5070429;28;20043;-72
2022/03/07 02:32:05;;;;;;;13.98;7.25;;;-0.90;90.80;;;;;;5070437;28;20028;-72
2022/03/07 02:34:30;;;;;;;11.85;7.47;;;-1.00;90.80;;;;;;5069924;28;20021;-72
2022/03/07 02:36:56;;;;;;;12.63;7.30;;;-1.10;91.40;;;;;;5057084;28;20029;-72
2022/03/07 02:39:22;;;;;;;11.20;7.30;;;-1.10;91.00;;;;;;5053726;28;20037;-72
2022/03/07 02:41:47;;;;;;;11.13;7.65;;;-1.20;91.40;;;;;;5055120;28;20048;-73
2022/03/07 02:44:13;;;;;;;11.32;6.57;;;-1.40;91.90;;;;;;5055623;28;20032;-72
2022/03/07 02:46:39;;;;;;;13.48;8.15;;;-1.50;92.60;;;;;;5068019;28;20040;-72
2022/03/07 02:49:05;;;;;;;12.40;7.63;;;-1.50;93.10;;;;;;5058826;28;20037;-73
2022/03/07 02:51:32;;;;;;;12.23;8.00;;;-1.50;92.70;;;;;;5053513;28;20063;-72
2022/03/07 02:53:58;;;;;;;10.90;7.63;;;-1.50;92.60;;;;;;5053918;28;20033;-73
2022/03/07 02:56:24;;;;;;;13.77;7.90;;;-1.60;92.80;;;;;;5052363;28;20032;-72
2022/03/07 02:58:49;;;;;;;12.15;7.50;;;-1.70;93.00;;;;;;5053930;28;20053;-72
2022/03/07 03:01:15;;;;;;;12.77;8.00;;;-1.80;93.40;;;;;;5067056;28;20104;-72
2022/03/07 03:03:41;;;;;;;13.15;7.65;;;-1.80;99.90;;;;;;5072700;28;20458;-72
2022/03/07 03:06:07;;;;;;;13.52;8.68;;;-1.90;99.90;;;;;;5073913;28;20090;-72
2022/03/07 03:08:33;;;;;;;11.10;7.63;;;-1.90;99.90;;;;;;5072970;28;20039;-72
2022/03/07 03:10:59;;;;;;;10.93;7.55;;;-2.00;95.20;;;;;;5073378;28;20033;-72
2022/03/07 03:13:25;;;;;;;11.43;8.10;;;-2.10;95.40;;;;;;5059044;28;20044;-72
2022/03/07 03:15:52;;;;;;;11.70;8.27;;;-2.10;99.90;;;;;;5053912;28;20036;-72
2022/03/07 03:18:19;;;;;;;11.40;8.10;;;-2.20;96.30;;;;;;5052898;28;20493;-72
2022/03/07 03:20:46;;;;;;;14.63;8.38;;;-2.20;96.60;;;;;;5053874;28;20539;-73
2022/03/07 03:23:12;;;;;;;14.70;9.82;;;-2.30;96.80;;;;;;5064053;28;20453;-72
2022/03/07 03:25:38;;;;;;;14.90;8.95;;;-2.20;96.10;;;;;;5073507;28;20039;-72
2022/03/07 03:28:04;;;;;;;14.13;8.63;;;-2.10;95.60;;;;;;5073242;28;20032;-72
2022/03/07 03:30:30;;;;;;;11.55;7.93;;;-2.20;95.60;;;;;;5072864;28;20316;-72
2022/03/07 03:32:56;;;;;;;12.63;8.70;;;-2.30;95.90;;;;;;5064477;28;20047;-72
2022/03/07 03:35:22;;;;;;;13.40;7.93;;;-2.40;96.60;;;;;;5052534;28;20421;-72
2022/03/07 03:37:47;;;;;;;10.30;7.80;;;-2.50;97.10;;;;;;5053249;28;20021;-73
2022/03/07 03:40:13;;;;;;;14.70;8.95;;;-2.60;97.50;;;;;;5058806;28;20118;-71
2022/03/07 03:42:40;;;;;;;13.40;8.20;;;-2.60;98.10;;;;;;5066991;28;20033;-73
2022/03/07 03:45:08;;;;;;;13.55;9.60;;;-2.70;98.60;;;;;;5053104;28;20469;-72
2022/03/07 03:47:38;;;;;;;14.20;8.55;;;-2.80;99.20;;;;;;5052347;28;20036;-73
2022/03/07 03:50:08;;;;;;;12.65;9.20;;;-2.80;99.50;;;;;;5053441;28;20025;-72
2022/03/07 03:52:34;;;;;;;;;;;-2.90;99.90;;;;;;5054657;28;20470;-72
2022/03/07 03:55:02;;;;;;;13.15;8.25;;;-2.90;99.90;;;;;;5073464;28;20403;-73
2022/03/07 03:57:28;;;;;;;13.02;8.55;;;-3.00;99.90;;;;;;5072369;28;20024;-72
2022/03/07 03:59:54;;;;;;;12.95;9.00;;;-3.10;99.90;;;;;;5072352;28;20051;-72
2022/03/07 04:02:19;;;;;;;16.52;9.77;;;-3.10;99.90;;;;;;5072239;28;20127;-72
2022/03/07 04:04:45;;;;;;;13.70;9.05;;;-3.10;99.90;;;;;;5053110;28;20047;-72
2022/03/07 04:07:11;;;;;;;14.70;9.50;;;-3.10;99.90;;;;;;5053058;28;20032;-71
2022/03/07 04:09:37;;;;;;;14.13;9.43;;;-3.10;99.90;;;;;;5052254;28;20060;-71
2022/03/07 04:12:02;;;;;;;17.30;9.75;;;-3.00;99.90;;;;;;5052863;28;20549;-72
2022/03/07 04:14:28;;;;;;;18.45;9.63;;;-3.00;99.90;;;;;;5051860;28;20033;-72
2022/03/07 04:16:54;;;;;;;12.82;8.55;;;-3.00;99.90;;;;;;5066492;28;20104;-72
2022/03/07 04:19:20;;;;;;;13.63;8.95;;;-3.10;99.90;;;;;;5072037;28;20024;-71
2022/03/07 04:21:46;;;;;;;15.82;9.77;;;-3.10;99.90;;;;;;5072724;28;20047;-72
2022/03/07 04:24:13;;;;;;;15.45;9.18;;;-3.20;99.90;;;;;;5057571;28;20040;-71
2022/03/07 04:26:40;;;;;;;15.70;9.23;;;-3.20;99.90;;;;;;5052834;28;20123;-72
2022/03/07 04:29:10;;;;;;;14.55;9.30;;;-3.30;99.90;;;;;;5052971;28;20047;-72
2022/03/07 04:31:40;;;;;;;15.20;9.60;;;-3.30;99.90;;;;;;5051786;28;20082;-72
2022/03/07 04:34:09;;;;;;;17.90;10.90;;;;;;;;;;5065389;28;20040;-72
2022/03/07 04:36:36;;;;;;;16.42;10.27;;;-3.40;99.90;;;;;;5058518;28;20132;-72
2022/03/07 04:39:04;;;;;;;17.50;10.35;;;-3.30;99.90;;;;;;5051899;28;20098;-72
2022/03/07 04:41:29;;;;;;;17.40;10.93;;;-3.30;99.90;;;;;;5063406;28;20036;-72
2022/03/07 04:43:55;;;;;;;16.10;10.65;;;-3.20;99.90;;;;;;5062671;28;20056;-72
2022/03/07 04:46:20;;;;;;;14.77;10.20;;;-3.20;99.90;;;;;;5050880;28;20033;-72
2022/03/07 04:48:46;;;;;;;16.15;11.13;;;-3.10;99.90;;;;;;5052100;28;20025;-71
2022/03/07 04:51:12;;;;;;;18.02;10.65;;;-3.00;99.90;;;;;;5051890;28;20044;-71
2022/03/07 04:53:38;;;;;;;19.85;11.90;;;-2.80;99.90;;;;;;5057379;28;20037;-71
2022/03/07 04:56:04;;;;;;;17.50;11.50;;;-2.60;99.90;;;;;;5071885;28;20031;-71
2022/03/07 04:58:30;;;;;;;17.27;10.90;;;-2.40;99.90;;;;;;5070467;28;20131;-70
2022/03/07 05:00:55;;;;;;;18.80;12.02;;;-2.10;99.90;;;;;;5062611;28;20104;-71
2022/03/07 05:03:21;;;;;;;21.75;11.98;;;-2.00;99.80;;;;;;5054675;28;20062;-70
2022/03/07 05:05:48;;;;;;;18.42;12.07;;;-1.90;99.60;;;;;;5071376;28;20041;-71
2022/03/07 05:08:14;;;;;;;19.90;10.95;;;-1.90;99.70;;;;;;5071290;28;20112;-70
2022/03/07 05:10:40;;;;;;;21.05;11.95;;;-1.90;99.40;;;;;;5070867;28;20052;-71
2022/03/07 05:13:06;;;;;;;18.83;12.20;;;-1.80;99.60;;;;;;5071691;28;20105;-73
2022/03/07 05:15:31;;;;;;;19.67;11.80;;;-1.90;99.80;;;;;;5051778;28;20111;-72
2022/03/07 05:17:58;;;;;;;18.75;12.23;;;-1.80;99.90;;;;;;5051403;28;20079;-71
2022/03/07 05:20:25;;;;;;;21.30;11.85;;;-1.80;99.80;;;;;;5053973;28;20060;-72
2022/03/07 05:22:52;;;;;;;23.67;12.70;;;-1.70;99.70;;;;;;5071473;28;20046;-72
2022/03/07 05:25:19;;;;;;;20.42;12.30;;;-1.70;99.90;;;;;;5050946;28;20040;-71
2022/03/07 05:27:45;;;;;;;22.23;13.13;;;-1.70;99.80;;;;;;5052551;28;20028;-72
2022/03/07 05:30:15;;;;;;;20.42;12.13;;;-1.70;99.90;;;;;;5071121;28;20031;-73
2022/03/07 05:32:50;;;;;;;21.35;12.73;;;-1.80;99.90;;;;;;5071117;28;20024;-72
2022/03/07 05:35:16;;;;;;;22.45;11.85;;;-1.70;99.90;;;;;;5051809;28;20033;-72
2022/03/07 05:37:42;;;;;;;22.48;12.73;;;-1.70;99.90;;;;;;5051121;28;20406;-74
2022/03/07 05:40:09;;;;;;;24.50;13.43;;;-1.90;99.90;;;;;;5051075;28;20025;-73
2022/03/07 05:42:36;;;;;;;20.63;12.13;;;-1.90;99.90;;;;;;5050211;28;20108;-72
2022/03/07 05:45:02;;;;;;;19.50;12.45;;;-1.90;99.90;;;;;;5051605;28;20048;-73
2022/03/07 05:47:27;;;;;;;26.13;12.85;;;-1.90;99.90;;;;;;5050073;28;20025;-73
2022/03/07 05:49:53;;;;;;;23.63;13.63;;;-2.00;99.90;;;;;;5050780;28;20407;-73
2022/03/07 05:52:19;;;;;;;19.55;12.00;;;-1.90;99.90;;;;;;5049982;28;20021;-72
2022/03/07 05:54:44;;;;;;;18.15;11.27;;;-1.80;99.90;;;;;;5051213;28;20040;-73
2022/03/07 05:57:11;;;;;;;19.33;11.93;;;-1.80;99.90;;;;;;5066485;28;20035;-73
2022/03/07 05:59:36;;;;;;;20.23;12.63;;;-1.80;99.90;;;;;;5069865;28;20052;-72
2022/03/07 06:02:02;;;;;;;19.80;11.60;;;-1.80;99.90;;;;;;5055794;28;20039;-74
2022/03/07 06:04:28;;;;;;;22.33;12.88;;;-1.90;99.90;;;;;;5049526;28;20382;-73
2022/03/07 06:06:54;;;;;;;21.83;13.20;;;-2.00;99.90;;;;;;5050764;28;20125;-73
2022/03/07 06:09:19;;;;;;;19.80;11.77;;;-2.10;99.90;;;;;;5049546;28;20032;-72
2022/03/07 06:11:45;;;;;;;21.90;12.88;;;-2.10;99.90;;;;;;5054411;28;20044;-73
2022/03/07 06:14:10;;;;;;;20.77;12.60;;;-2.10;99.90;;;;;;5055092;28;20463;-73
2022/03/07 06:16:36;;;;;;;18.85;12.15;;;-2.10;99.90;;;;;;5062822;28;20028;-73
2022/03/07 06:19:02;;;;;;;21.20;12.82;;;-2.10;99.90;;;;;;5075926;28;20123;-73
2022/03/07 06:21:27;;;;;;;21.85;11.32;;;-2.10;99.90;;;;;;5067906;28;20044;-73
2022/03/07 06:23:53;;;;;;;18.35;11.65;;;-2.10;99.90;;;;;;5054794;28;20028;-73
2022/03/07 06:26:19;;;;;;;21.75;12.40;;;-1.90;99.90;;;;;;5052237;28;20112;-73
2022/03/07 06:28:44;;;;;;;19.33;11.27;;;-1.90;99.90;;;;;;5055479;28;20028;-73
2022/03/07 06:31:10;;;;;;;17.45;10.48;;;-1.80;99.90;;;;;;5054074;28;20032;-73
2022/03/07 06:33:36;;;;;;;19.60;10.98;;;-1.70;99.90;;;;;;5053646;28;20067;-73
2022/03/07 06:36:05;;;;;;;16.45;10.55;;;-1.70;99.90;;;;;;5053497;28;20124;-72
2022/03/07 06:38:33;;;;;;;16.95;10.73;;;-1.60;99.90;;;;;;5047656;28;20068;-73
2022/03/07 06:40:58;;;;;;;20.15;11.15;;;-1.60;99.90;;;;;;5059259;28;21636;-73
2022/03/07 06:43:24;;;;;;;17.73;10.20;;;-1.60;99.90;;;;;;5064521;28;20063;-73
2022/03/07 06:45:50;;;;;;;17.67;10.73;;;-1.50;99.90;;;;;;5067014;28;20028;-73
2022/03/07 06:48:16;;;;;;;18.08;10.90;;;-1.40;99.90;;;;;;5074148;28;20099;-74
2022/03/07 06:50:42;;;;;;;14.65;9.48;;;-1.40;99.90;;;;;;5105802;28;20351;-71
2022/03/07 06:53:07;;;;;;;16.45;10.57;;;-1.40;99.90;;;;;;5033778;28;20192;-72
2022/03/07 06:55:33;;;;;;;15.48;9.77;;;-1.40;99.90;;;;;;5033440;28;20113;-71
2022/03/07 06:57:59;;;;;;;18.27;10.48;;;-1.40;99.90;;;;;;5067183;28;20031;-71
2022/03/07 07:00:25;;;;;;;14.35;9.20;;;-1.30;99.90;;;;;;5071401;28;20052;-71
2022/03/07 07:02:50;;;;;;;15.73;9.77;;;-1.30;99.90;;;;;;5069608;28;20032;-67
2022/03/07 07:05:16;;;;;;;14.45;9.73;;;-1.30;99.90;;;;;;5053714;28;20377;-68
2022/03/07 07:07:44;;;;;;;14.52;9.55;;;-1.20;99.90;;;;;;5066044;28;20388;-66
2022/03/07 07:10:10;;;;;;;14.60;9.18;;;-1.10;99.60;;;;;;5071546;28;20039;-67
2022/03/07 07:12:36;;;;;;;15.38;10.00;;;-1.10;99.40;;;;;;5052922;28;20112;-67
2022/03/07 07:15:06;;;;;;;14.98;9.05;;;-1.10;99.40;;;;;;5053177;28;20033;-67
2022/03/07 07:17:32;;;;;;;;;;;-1.10;99.20;;;;;;5053594;28;20064;-67
2022/03/07 07:19:58;;;;;;;14.82;9.18;;;-1.10;99.40;;;;;;5066072;28;20388;-73
2022/03/07 07:22:23;;;;;;;17.23;9.75;;;-1.10;99.40;;;;;;5066145;28;20339;-71
2022/03/07 07:24:49;;;;;;;18.23;9.88;;;-1.00;99.00;;;;;;5053122;28;21410;-71
2022/03/07 07:27:14;;;;;;;15.73;9.63;;;-1.00;98.80;;;;;;5050460;28;20036;-71
2022/03/07 07:29:40;;;;;;;15.48;10.13;;;-1.00;98.90;;;;;;5052231;28;20636;-72
2022/03/07 07:32:06;;;;;;;15.70;9.98;;;-0.90;99.00;;;;;;5053063;28;20100;-71
2022/03/07 07:34:32;;;;;;;18.20;10.38;;;-0.90;99.20;;;;;;5052185;28;20085;-72
2022/03/07 07:36:58;;;;;;;20.17;10.07;;;-0.90;98.70;;;;;;5054122;28;20021;-71
2022/03/07 07:39:23;;;;;;;18.95;10.05;;;-0.80;98.80;;;;;;5071945;28;20427;-68
2022/03/07 07:41:50;;;;;;;17.13;10.05;;;-0.70;98.10;;;;;;5066371;28;20032;-68
2022/03/07 07:44:16;;;;;;;18.92;10.65;;;-0.80;98.20;;;;;;5052110;28;20029;-69
2022/03/07 07:46:42;;;;;;;20.02;10.60;;;-0.80;98.30;;;;;;5051851;28;20131;-70
2022/03/07 07:49:08;;;;;;;21.10;10.15;;;-0.70;98.40;;;;;;5052740;28;20466;-69
2022/03/07 07:51:33;;;;;;;18.98;9.77;;;-0.50;97.20;;;;;;5052899;28;20536;-68
2022/03/07 07:54:00;;;;;;;19.42;10.50;;;-0.40;97.00;;;;;;5061760;28;20032;-69
2022/03/07 07:56:26;;;;;;;15.05;10.25;;;-0.50;97.00;;;;;;5058598;28;20036;-69
2022/03/07 07:58:52;;;;;;;16.45;10.07;;;-0.50;97.30;;;;;;5061599;28;20056;-69
2022/03/07 08:01:18;;;;;;;18.02;10.55;;;-0.40;97.30;;;;;;5072426;28;20105;-69
2022/03/07 08:03:44;;;;;;;18.33;10.68;;;-0.40;97.40;;;;;;5070828;28;20029;-69
2022/03/07 08:06:09;;;;;;;14.75;9.80;;;-0.30;96.20;;;;;;5059899;28;20025;-69
2022/03/07 08:08:35;;;;;;;15.73;10.23;;;-0.20;95.90;;;;;;5049817;28;20033;-68
2022/03/07 08:11:01;;;;;;;15.35;9.98;;;-0.10;95.20;;;;;;5064591;28;20036;-70
2022/03/07 08:13:26;;;;;;;17.35;10.50;;;-0.10;94.90;;;;;;5064916;28;20036;-68
2022/03/07 08:15:52;;;;;;;15.57;10.27;;;-0.10;95.10;;;;;;5071790;28;20468;-68
2022/03/07 08:18:18;;;;;;;16.30;9.90;;;-0.10;95.00;;;;;;5063518;28;20029;-68
2022/03/07 08:20:44;;;;;;;15.55;10.38;;;0.00;94.40;;;;;;5051483;28;20390;-69
2022/03/07 08:23:09;;;;;;;15.60;10.13;;;0.20;94.00;;;;;;5067509;28;20028;-68
2022/03/07 08:25:35;;;;;;;21.23;11.45;;;0.20;93.40;;;;;;5057214;28;20041;-69
2022/03/07 08:28:01;;;;;;;16.13;9.80;;;0.30;92.90;;;;;;5072914;28;20029;-68
2022/03/07 08:30:28;;;;;;;15.45;10.13;;;0.40;92.40;;;;;;5072181;28;20093;-69
2022/03/07 08:32:54;;;;;;;19.60;10.60;;;0.50;91.70;;;;;;5072184;28;20477;-68
2022/03/07 08:35:21;;;;;;;16.42;10.93;;;0.60;90.30;;;;;;5071731;28;20112;-71
2022/03/07 08:37:48;;;;;;;15.57;9.48;;;0.70;88.60;;;;;;5072234;28;20040;-69
2022/03/07 08:40:16;;;;;;;15.90;10.15;;;0.70;88.70;;;;;;5072213;28;20107;-70
2022/03/07 08:42:42;;;;;;;15.45;9.95;;;0.90;87.30;;;;;;5071922;28;20118;-69
2022/03/07 08:45:09;;;;;;;16.42;9.65;;;0.90;85.80;;;;;;5064298;28;20047;-69
2022/03/07 08:47:40;;;;;;;15.63;9.57;;;1.00;86.00;;;;;;5052094;28;20107;-68
2022/03/07 08:50:08;;;;;;;14.43;9.32;;;1.20;83.50;;;;;;5052744;28;20021;-68
2022/03/07 08:52:35;;;;;;;17.23;10.75;;;1.20;81.80;;;;;;5051867;28;20048;-69
2022/03/07 08:55:01;;;;;;;17.25;10.57;;;1.20;82.10;;;;;;5060878;28;20085;-69
2022/03/07 08:57:27;;;;;;;14.65;9.95;;;1.30;83.10;;;;;;5071627;28;20032;-69
2022/03/07 08:59:52;;;;;;;17.83;9.93;;;1.30;81.30;;;;;;5069553;28;20075;-69
2022/03/07 09:02:18;;;;;;;15.40;9.80;;;1.40;79.90;;;;;;5068266;28;20051;-69
2022/03/07 09:04:44;;;;;;;15.52;8.68;;;1.40;78.60;;;;;;5052906;28;20033;-68
2022/03/07 09:07:10;;;;;;;13.80;10.02;;;1.40;78.60;;;;;;5068550;28;20029;-69
2022/03/07 09:09:36;;;;;;;16.15;10.35;;;1.40;78.80;;;;;;5062181;28;20032;-69
2022/03/07 09:12:04;;;;;;;18.38;10.40;;;1.40;78.90;;;;;;5051740;28;20044;-69
2022/03/07 09:14:30;;;;;;;15.45;9.68;;;1.50;78.20;;;;;;5056435;28;20139;-69
2022/03/07 09:16:56;;;;;;;15.75;10.50;;;1.40;77.20;;;;;;5072351;28;20040;-69
2022/03/07 09:19:22;;;;;;;16.60;10.23;;;1.40;77.10;;;;;;5071432;28;20541;-71
2022/03/07 09:21:48;;;;;;;15.88;10.02;;;1.50;76.90;;;;;;5071366;28;20100;-69
2022/03/07 09:24:14;;;;;;;16.13;9.98;;;1.70;76.00;;;;;;5071846;28;20028;-68
2022/03/07 09:26:40;;;;;;;15.43;9.50;;;1.80;77.10;;;;;;5070987;28;20032;-69
2022/03/07 09:29:06;;;;;;;16.50;10.45;;;1.90;76.50;;;;;;5069814;28;20027;-70
2022/03/07 09:31:32;;;;;;;17.98;10.85;;;1.90;75.40;;;;;;5070881;28;20032;-69
2022/03/07 09:33:57;;;;;;;12.90;9.32;;;1.90;75.60;;;;;;5071233;28;20037;-68
2022/03/07 09:36:23;;;;;;;15.00;9.73;;;2.10;74.30;;;;;;5071026;28;20043;-71
2022/03/07 09:38:50;;;;;;;16.38;10.38;;;2.20;72.60;;;;;;5056327;28;20096;-69
2022/03/07 09:41:17;;;;;;;18.52;11.00;;;2.40;73.40;;;;;;5051634;28;20028;-69
2022/03/07 09:43:44;;;;;;;15.63;10.15;;;2.70;72.10;;;;;;5053818;28;20036;-70
2022/03/07 09:46:09;;;;;;;14.82;9.95;;;2.80;70.30;;;;;;5055579;28;20051;-68
2022/03/07 09:48:35;;;;;;;15.85;10.25;;;3.10;69.40;;;;;;5050883;28;20478;-68
2022/03/07 09:51:01;;;;;;;16.65;10.50;;;3.20;68.40;;;;;;5051527;28;20542;-68
2022/03/07 09:53:26;;;;;;;15.23;10.40;;;3.20;67.30;;;;;;5050178;28;20025;-70
2022/03/07 09:55:52;;;;;;;13.13;9.20;;;3.10;67.20;;;;;;5043597;28;20424;-68
2022/03/07 09:58:18;;;;;;;17.15;10.70;;;3.10;68.10;;;;;;5031437;28;20131;-68
2022/03/07 10:00:44;;;;;;;17.00;9.93;;;3.10;67.90;;;;;;5030206;28;20049;-68
2022/03/07 10:03:13;;;;;;;16.75;10.40;;;3.30;67.90;;;;;;5034973;28;20040;-68
2022/03/07 10:05:44;;;;;;;12.75;9.45;;;3.60;67.00;;;;;;5043203;28;20113;-68
2022/03/07 10:08:20;;;;;;;15.88;10.45;;;3.90;65.60;;;;;;5031325;28;20032;-68
2022/03/07 10:10:45;;;;;;;16.38;9.80;;;4.10;64.90;;;;;;5030800;28;20322;-68
2022/03/07 10:13:14;;;;;;;13.98;10.27;;;4.20;64.40;;;;;;5047629;28;20033;-68
2022/03/07 10:15:42;;;;;;;14.93;10.30;;;4.10;64.60;;;;;;5048518;28;20044;-68
2022/03/07 10:18:15;;;;;;;14.57;10.10;;;4.10;64.40;;;;;;5051033;28;20048;-68
2022/03/07 10:20:53;;;;;;;14.57;10.25;;;4.00;64.20;;;;;;5030841;28;20463;-68
2022/03/07 10:23:20;;;;;;;15.65;10.10;;;4.00;64.90;;;;;;5031670;28;20037;-68
2022/03/07 10:25:46;;;;;;;14.90;9.60;;;3.90;64.80;;;;;;5048237;28;20108;-68
2022/03/07 10:28:12;;;;;;;15.65;10.35;;;4.00;65.20;;;;;;5050897;28;20112;-68
2022/03/07 10:30:38;;;;;;;14.27;9.98;;;4.00;64.70;;;;;;5041319;28;20423;-68
2022/03/07 10:33:13;;;;;;;23.52;11.07;;;4.10;64.40;;;;;;5030632;28;20525;-68
2022/03/07 10:35:44;;;;;;;20.73;10.70;;;4.20;64.20;;;;;;5030394;28;20097;-68
2022/03/07 10:38:11;;;;;;;18.00;10.05;;;4.30;64.10;;;;;;5030754;28;20524;-68
2022/03/07 10:40:39;;;;;;;18.00;9.70;;;4.30;64.10;;;;;;5048097;28;20025;-68
2022/03/07 10:43:07;;;;;;;21.33;10.73;;;4.40;63.50;;;;;;5050578;28;20036;-68
2022/03/07 10:45:46;;;;;;;14.23;9.85;;;4.40;63.50;;;;;;5067923;28;20064;-68
2022/03/07 10:48:11;;;;;;;84.70;13.10;;;4.40;62.80;;;;;;5070684;28;20025;-68
2022/03/07 10:50:37;;;;;;;15.73;10.13;;;4.40;62.90;;;;;;5041386;28;20033;-68
2022/03/07 10:53:05;;;;;;;17.00;10.57;;;4.40;62.90;;;;;;5049957;28;20482;-68
2022/03/07 10:55:32;;;;;;;18.95;9.95;;;4.60;63.60;;;;;;5049773;28;20036;-68
2022/03/07 10:58:13;;;;;;;14.90;9.82;;;4.80;62.10;;;;;;5037184;28;20470;-68
2022/03/07 11:00:59;;;;;;;17.92;10.10;;;4.90;61.50;;;;;;5033904;28;20091;-68
2022/03/07 11:03:36;;;;;;;195.93;16.08;;;;;;;;;;5040732;28;20445;-70
2022/03/07 11:06:03;;;;;;;28.25;10.45;;;;;;;;;;5053276;28;20426;-68
2022/03/07 11:08:32;;;;;;;22.90;10.93;;;;;;;;;;5053244;28;20017;-70
2022/03/07 11:11:03;;;;;;;20.45;10.25;;;;;;;;;;5054734;28;20037;-68
2022/03/07 11:13:34;;;;;;;25.17;10.05;;;;;;;;;;5038935;28;20033;-70
2022/03/07 11:16:04;;;;;;;27.60;11.10;;;;;;;;;;5074214;28;20016;-68
2022/03/07 11:18:34;;;;;;;23.42;10.65;;;;;;;;;;5073297;28;20029;-70
2022/03/07 11:21:04;;;;;;;23.23;10.07;;;;;;;;;;5074543;28;20042;-68
2022/03/07 11:23:31;;;;;;;16.63;10.43;;;;;;;;;;5045727;28;20017;-70
2022/03/07 11:26:01;;;;;;;24.23;13.18;;;;;;;;;;5047014;28;20033;-69
2022/03/07 11:28:29;;;;;;;15.27;10.95;;;;;;;;;;5064829;28;20104;-71
2022/03/07 11:30:56;;;;;;;43.35;16.65;;;;;;;;;;5073774;28;20029;-69
2022/03/07 11:33:27;;;;;;;15.63;10.27;;;3.90;93.10;;;;;;5073545;28;20028;-69
2022/03/07 11:35:54;;;;;;;14.75;9.98;;;;;;;;;;5067744;28;20020;-68
2022/03/07 11:38:25;;;;;;;14.40;10.75;;;3.80;92.80;;;;;;5070033;28;20036;-68
2022/03/07 11:41:09;;;;;;;16.00;10.75;;;3.50;63.00;;;;;;5053128;28;20120;-68
2022/03/07 11:43:50;;;;;;;16.92;10.63;;;3.40;63.30;;;;;;5055097;28;20056;-69
2022/03/07 11:46:32;;;;;;;15.15;10.73;;;3.40;63.90;;;;;;5060507;28;20025;-68
2022/03/07 11:48:58;;;;;;;16.05;10.52;;;3.50;63.00;;;;;;5054598;28;20029;-69
2022/03/07 11:51:26;;;;;;;16.05;10.13;;;3.50;62.70;;;;;;5060229;28;20106;-69
2022/03/07 11:53:53;;;;;;;15.23;10.30;;;3.50;62.50;;;;;;5072266;28;20121;-69
2022/03/07 11:56:21;;;;;;;15.63;10.40;;;3.40;62.70;;;;;;5073073;28;20466;-69
2022/03/07 11:58:49;;;;;;;14.73;9.80;;;3.50;62.80;;;;;;5070899;28;20094;-69
2022/03/07 12:01:16;;;;;;;17.08;9.93;;;3.60;62.40;;;;;;5065591;28;20482;-69
2022/03/07 12:03:42;;;;;;;15.75;10.55;;;3.90;62.10;;;;;;5057253;28;20123;-69
2022/03/07 12:06:10;;;;;;;19.63;10.27;;;4.40;61.50;;;;;;5073384;28;20460;-69
2022/03/07 12:08:47;;;;;;;13.63;9.73;;;5.00;59.60;;;;;;5069770;28;20120;-69
2022/03/07 12:11:33;;;;;;;13.48;9.20;;;5.40;58.70;;;;;;5073139;28;20102;-69
2022/03/07 12:14:05;;;;;;;12.93;9.73;;;5.70;56.90;;;;;;5072466;28;20238;-68
2022/03/07 12:16:34;;;;;;;12.40;9.30;;;5.80;56.30;;;;;;5069018;28;20029;-71
2022/03/07 12:19:32;;;;;;;15.57;9.37;;;5.50;55.70;;;;;;5065222;28;20449;-68
2022/03/07 12:22:08;;;;;;;11.82;9.25;;;5.10;56.80;;;;;;5018813;28;20386;-69
2022/03/07 12:24:36;;;;;;;14.88;9.77;;;4.90;57.10;;;;;;5051790;28;20033;-69
2022/03/07 12:27:02;;;;;;;12.48;9.30;;;4.80;57.60;;;;;;5052932;28;20021;-68
2022/03/07 12:29:28;;;;;;;15.65;9.32;;;4.80;57.60;;;;;;5067094;28;20059;-70
2022/03/07 12:31:59;;;;;;;15.10;9.70;;;5.10;56.80;;;;;;5070444;28;20020;-69
2022/03/07 12:34:28;;;;;;;16.40;10.13;;;5.20;56.90;;;;;;5072691;28;20036;-68
2022/03/07 12:36:59;;;;;;;13.45;9.30;;;5.40;55.60;;;;;;5068745;28;20112;-69
2022/03/07 12:39:26;;;;;;;13.02;9.15;;;5.60;55.30;;;;;;5058287;28;20465;-68
2022/03/07 12:41:52;;;;;;;14.75;9.73;;;5.90;53.90;;;;;;5056370;28;20044;-69